Time;durP1;ratioP1;P1;durP2;ratioP2;P2;SDS_P1;SDS_P2;PMS_P1;PMS_P2;Temp;Humidity;BMP_temperature;BMP_pressure;BME280_temperature;BME280_humidity;BME280_pressure;Samples;Min_cycle;Max_cycle;Signal;HPM_P1;HPM_P2
2022/01/26 00:07:22;;;;;;;105.32;37.47;;;;;;;;;;6200176;23;20025;-94
2022/01/26 00:09:51;;;;;;;113.95;38.70;;;;;;;;;;6198638;23;20029;-94
2022/01/26 00:12:18;;;;;;;113.63;40.22;;;;;;;;;;6198316;23;20024;-94
2022/01/26 00:14:46;;;;;;;104.80;38.53;;;;;;;;;;6201900;23;20040;-94
2022/01/26 00:17:14;;;;;;;117.35;38.08;;;;;;;;;;6203212;22;20029;-94
2022/01/26 00:20:06;;;;;;;110.63;38.55;;;;;;;;;;6200065;23;20037;-94
2022/01/26 00:38:44;;;;;;;93.93;34.33;;;;;;;;;;6202218;23;20084;-93
2022/01/26 00:41:14;;;;;;;101.55;34.33;;;;;;;;;;6202572;23;20017;-94
2022/01/26 00:43:51;;;;;;;98.25;32.45;;;;;;;;;;6202818;23;20025;-94
2022/01/26 00:46:20;;;;;;;98.88;35.50;;;;;;;;;;6199504;23;20051;-94
2022/01/26 00:48:47;;;;;;;92.50;34.35;;;;;;;;;;6199946;23;20403;-94
2022/01/26 00:51:21;;;;;;;89.38;32.22;;;;;;;;;;6200734;23;20041;-93
2022/01/26 00:53:54;;;;;;;92.35;32.50;;;;;;;;;;6206771;23;20034;-92
2022/01/26 00:56:24;;;;;;;;;;;;;;;;;;6209374;23;20017;-94
2022/01/26 00:58:51;;;;;;;86.00;31.67;;;;;;;;;;6202793;23;19920;-93
2022/01/26 01:01:20;;;;;;;92.10;32.78;;;;;;;;;;6202023;22;20051;-93
2022/01/26 01:03:48;;;;;;;85.43;32.13;;;;;;;;;;6200647;23;20403;-93
2022/01/26 01:08:47;;;;;;;82.63;30.17;;;;;;;;;;6203283;23;20025;-93
2022/01/26 01:11:16;;;;;;;89.40;30.10;;;;;;;;;;6202166;23;20025;-93
2022/01/26 01:13:44;;;;;;;87.80;31.08;;;;;;;;;;6203037;22;20036;-92
2022/01/26 01:16:17;;;;;;;93.35;30.45;;;;;;;;;;6201675;23;20024;-93
2022/01/26 01:18:52;;;;;;;86.78;31.10;;;;;;;;;;6203591;23;20081;-92
2022/01/26 01:29:31;;;;;;;88.57;31.05;;;;;;;;;;6154449;23;20077;-93
2022/01/26 01:32:01;;;;;;;88.25;30.88;;;;;;;;;;6201983;23;20052;-93
2022/01/26 01:34:38;;;;;;;87.63;31.75;;;;;;;;;;6201566;23;20042;-93
2022/01/26 01:37:10;;;;;;;86.25;29.83;;;;;;;;;;6202492;23;20033;-93
2022/01/26 01:39:37;;;;;;;76.68;30.15;;;;;;;;;;6203189;23;20031;-93
2022/01/26 01:42:07;;;;;;;77.85;29.70;;;;;;;;;;6202065;23;20077;-93
2022/01/26 01:44:35;;;;;;;73.88;27.70;;;;;;;;;;6177930;23;20272;-93
2022/01/26 01:47:03;;;;;;;79.43;28.33;;;;;;;;;;6207712;23;20106;-93
2022/01/26 01:49:33;;;;;;;81.47;29.50;;;;;;;;;;6209274;23;20032;-92
2022/01/26 01:52:03;;;;;;;78.68;29.23;;;;;;;;;;6209359;23;20013;-93
2022/01/26 01:54:31;;;;;;;79.25;27.75;;;;;;;;;;6209609;23;20036;-91
2022/01/26 01:57:01;;;;;;;85.82;29.90;;;;;;;;;;6209400;23;20016;-92
2022/01/26 01:59:30;;;;;;;82.55;29.35;;;;;;;;;;6208895;23;20020;-92
2022/01/26 02:01:59;;;;;;;74.55;26.80;;;;;;;;;;6208049;23;20009;-91
2022/01/26 02:04:26;;;;;;;82.32;30.58;;;;;;;;;;6206820;23;20017;-93
2022/01/26 02:06:53;;;;;;;79.20;28.50;;;;;;;;;;6201615;23;20021;-93
2022/01/26 02:09:19;;;;;;;78.05;29.05;;;;;;;;;;6207594;23;20015;-92
2022/01/26 02:11:54;;;;;;;85.25;29.10;;;;;;;;;;6209209;23;20013;-92
2022/01/26 02:14:28;;;;;;;80.07;27.45;;;;;;;;;;6205581;23;20028;-93
2022/01/26 02:50:05;;;;;;;83.90;27.73;;;;;;;;;;6205648;23;20036;-92
2022/01/26 02:57:47;;;;;;;78.28;25.80;;;;;;;;;;6206500;23;20025;-92
2022/01/26 03:03:12;;;;;;;72.80;26.13;;;;;;;;;;6206322;23;20036;-93
2022/01/26 03:05:38;;;;;;;75.88;26.25;;;;;;;;;;6204950;23;20025;-93
2022/01/26 03:08:06;;;;;;;75.95;25.40;;;;;;;;;;6204177;23;20077;-92
2022/01/26 03:10:45;;;;;;;67.47;25.23;;;;;;;;;;6204321;23;20085;-93
2022/01/26 03:13:20;;;;;;;71.60;25.48;;;;;;;;;;6207619;23;20016;-90
2022/01/26 03:15:55;;;;;;;75.47;25.00;;;;;;;;;;6206117;23;20025;-93
2022/01/26 03:20:56;;;;;;;64.05;24.08;;;;;;;;;;6200905;22;19927;-93
2022/01/26 03:29:13;;;;;;;65.10;24.48;;;;;;;;;;6199874;23;20031;-93
2022/01/26 03:32:29;;;;;;;62.13;24.10;;;;;;;;;;6200108;23;20043;-93
2022/01/26 03:34:36;;;;;;;59.20;22.40;;;;;;;;;;6199395;23;20025;-94
2022/01/26 03:37:08;;;;;;;52.75;20.40;;;;;;;;;;6198793;23;20028;-93
2022/01/26 03:39:42;;;;;;;55.47;20.95;;;;;;;;;;6198437;23;20025;-94
2022/01/26 03:42:15;;;;;;;45.30;19.23;;;;;;;;;;6199047;23;20025;-93
2022/01/26 03:44:42;;;;;;;48.88;18.70;;;;;;;;;;6198934;23;20025;-94
2022/01/26 03:47:10;;;;;;;46.17;18.08;;;;;;;;;;6200685;23;20058;-92
2022/01/26 03:49:41;;;;;;;42.15;17.13;;;;;;;;;;6201198;23;20024;-93
2022/01/26 03:52:09;;;;;;;40.80;16.17;;;;;;;;;;6201349;23;20044;-93
2022/01/26 03:54:36;;;;;;;43.70;17.52;;;;;;;;;;6199955;23;20036;-93
2022/01/26 03:57:03;;;;;;;45.25;17.20;;;;;;;;;;6176628;23;20029;-93
2022/01/26 03:59:30;;;;;;;48.83;18.67;;;;;;;;;;6202412;23;20013;-93
2022/01/26 04:01:57;;;;;;;44.55;18.48;;;;;;;;;;6208395;23;20017;-92
2022/01/26 04:04:24;;;;;;;47.65;17.92;;;;;;;;;;6208332;23;20017;-92
2022/01/26 04:06:54;;;;;;;48.10;17.48;;;;;;;;;;6207213;23;20042;-94
2022/01/26 04:09:21;;;;;;;46.33;18.10;;;;;;;;;;6207136;23;20187;-92
2022/01/26 04:11:50;;;;;;;40.85;17.08;;;;;;;;;;6206418;23;20025;-93
2022/01/26 04:14:22;;;;;;;44.65;16.88;;;;;;;;;;6179698;23;20341;-94
2022/01/26 04:16:54;;;;;;;45.22;16.67;;;;;;;;;;6204346;23;20241;-93
2022/01/26 04:19:22;;;;;;;39.40;16.08;;;;;;;;;;6203280;23;20024;-93
2022/01/26 04:24:34;;;;;;;42.08;16.45;;;;;;;;;;6204115;23;20098;-93
2022/01/26 04:27:16;;;;;;;45.17;16.50;;;;;;;;;;6203025;23;20021;-93
2022/01/26 04:29:43;;;;;;;46.63;16.80;;;;;;;;;;6201844;23;20029;-93
2022/01/26 04:32:13;;;;;;;38.55;16.20;;;;;;;;;;6203868;23;20044;-93
2022/01/26 04:34:43;;;;;;;45.90;19.15;;;;;;;;;;6203747;23;20101;-93
2022/01/26 04:40:01;;;;;;;40.50;16.42;;;;;;;;;;6202290;23;20029;-95
2022/01/26 04:45:08;;;;;;;44.83;17.25;;;;;;;;;;6201146;23;20040;-93
2022/01/26 04:47:35;;;;;;;46.17;17.48;;;;;;;;;;6199285;23;20170;-94
2022/01/26 04:50:03;;;;;;;44.22;17.13;;;;;;;;;;6200007;23;20303;-94
2022/01/26 04:52:31;;;;;;;45.42;17.80;;;;;;;;;;6198591;23;20037;-94
2022/01/26 04:54:58;;;;;;;43.20;18.55;;;;;;;;;;6201472;23;20076;-94
2022/01/26 04:57:27;;;;;;;41.08;16.67;;;;;;;;;;6201515;23;20068;-93
2022/01/26 04:59:55;;;;;;;47.53;19.15;;;;;;;;;;6174978;23;20025;-93
2022/01/26 05:02:22;;;;;;;48.10;17.77;;;;;;;;;;6205168;23;20017;-92
2022/01/26 05:04:49;;;;;;;48.22;17.70;;;;;;;;;;6204029;23;20378;-94
2022/01/26 05:07:16;;;;;;;49.08;17.60;;;;;;;;;;6177513;23;20024;-94
2022/01/26 05:09:43;;;;;;;42.95;17.23;;;;;;;;;;6202084;23;20032;-94
2022/01/26 05:12:12;;;;;;;51.80;18.48;;;;;;;;;;6202122;23;20029;-94
2022/01/26 05:14:42;;;;;;;51.10;18.80;;;;;;;;;;6196701;23;20025;-93
2022/01/26 05:17:11;;;;;;;51.03;18.08;;;;;;;;;;6199961;23;20025;-93
2022/01/26 05:19:38;;;;;;;51.85;19.98;;;;;;;;;;6178026;23;20025;-93
2022/01/26 05:22:05;;;;;;;51.90;18.45;;;;;;;;;;6205520;23;20021;-93
2022/01/26 05:24:31;;;;;;;47.10;18.15;;;;;;;;;;6208101;23;20024;-90
2022/01/26 05:26:58;;;;;;;48.30;18.13;;;;;;;;;;6204431;23;20013;-93
2022/01/26 05:29:25;;;;;;;52.08;18.83;;;;;;;;;;6201650;23;20025;-92
2022/01/26 05:31:52;;;;;;;54.25;19.80;;;;;;;;;;6208073;23;20059;-92
2022/01/26 05:34:21;;;;;;;51.65;18.25;;;;;;;;;;6207383;23;20051;-95
2022/01/26 05:36:54;;;;;;;51.20;18.73;;;;;;;;;;6204343;23;20076;-94
2022/01/26 05:39:22;;;;;;;57.33;19.10;;;;;;;;;;6203533;23;20048;-94
2022/01/26 05:41:54;;;;;;;52.67;19.17;;;;;;;;;;6204668;23;20035;-95
2022/01/26 05:44:21;;;;;;;53.53;17.27;;;;;;;;;;6201532;23;20053;-94
2022/01/26 05:46:50;;;;;;;51.63;19.20;;;;;;;;;;6201828;23;20089;-94
2022/01/26 05:49:22;;;;;;;49.47;18.63;;;;;;;;;;6201615;23;20104;-94
2022/01/26 09:02:08;;;;;;;92.37;30.20;;;;;;;;;;6201683;22;20020;-94
2022/01/26 09:04:39;;;;;;;92.38;29.17;;;;;;;;;;6211403;23;20037;-93
2022/01/26 09:07:14;;;;;;;97.28;31.17;;;;;;;;;;6210534;23;20035;-93
2022/01/26 09:09:48;;;;;;;94.53;28.35;;;;;;;;;;6208796;23;20013;-93
2022/01/26 09:12:17;;;;;;;88.85;28.45;;;;;;;;;;6209076;23;20073;-92
2022/01/26 09:14:45;;;;;;;86.85;30.38;;;;;;;;;;6209318;22;20040;-93
2022/01/26 09:17:13;;;;;;;91.65;30.48;;;;;;;;;;6209743;23;20017;-92
2022/01/26 09:19:44;;;;;;;93.10;29.70;;;;;;;;;;6209477;23;20009;-92
2022/01/26 09:22:12;;;;;;;93.85;30.00;;;;;;;;;;6209639;22;20013;-93
2022/01/26 09:24:40;;;;;;;95.28;29.45;;;;;;;;;;6209115;23;20064;-94
2022/01/26 09:27:14;;;;;;;89.00;28.63;;;;;;;;;;6209600;23;20016;-93
2022/01/26 09:29:46;;;;;;;89.97;28.95;;;;;;;;;;6209421;23;20021;-95
2022/01/26 09:32:14;;;;;;;89.28;30.13;;;;;;;;;;6209336;23;20009;-94
2022/01/26 09:34:45;;;;;;;84.00;28.50;;;;;;;;;;6209516;22;20024;-94
2022/01/26 09:37:25;;;;;;;81.75;29.40;;;;;;;;;;6204235;23;20040;-93
2022/01/26 09:39:52;;;;;;;96.70;29.45;;;;;;;;;;6209104;22;20247;-91
2022/01/26 09:42:23;;;;;;;86.85;27.63;;;;;;;;;;6208816;22;20060;-93
2022/01/26 09:44:54;;;;;;;98.32;30.45;;;;;;;;;;6209278;23;20055;-93
2022/01/26 09:47:23;;;;;;;91.35;28.35;;;;;;;;;;6208930;23;20010;-94
2022/01/26 09:49:50;;;;;;;90.22;28.27;;;;;;;;;;6209402;23;20010;-94
2022/01/26 09:55:06;;;;;;;92.10;30.13;;;;;;;;;;6209590;23;20016;-92
2022/01/26 09:57:34;;;;;;;102.35;34.25;;;;;;;;;;6185701;22;20076;-93
2022/01/26 10:00:03;;;;;;;94.53;32.42;;;;;;;;;;6210926;22;20031;-90
2022/01/26 10:02:34;;;;;;;95.65;32.58;;;;;;;;;;6185861;22;20020;-91
2022/01/26 10:05:09;;;;;;;105.05;33.47;;;;;;;;;;6185111;22;20019;-92
2022/01/26 10:08:09;;;;;;;105.10;33.65;;;;;;;;;;6186074;22;20005;-93
2022/01/26 10:17:34;;;;;;;96.28;32.38;;;;;;;;;;6188756;22;20032;-91
2022/01/26 10:19:40;;;;;;;114.13;35.78;;;;;;;;;;6200086;22;20009;-90
2022/01/26 10:22:29;;;;;;;104.93;34.20;;;;;;;;;;6187405;22;20036;-93
2022/01/26 10:25:17;;;;;;;106.32;34.67;;;;;;;;;;6187926;22;20024;-92
2022/01/26 10:28:09;;;;;;;102.95;34.47;;;;;;;;;;6189246;22;20016;-92
2022/01/26 17:43:49;;;;;;;98.03;34.65;;;;;;;;;;6367004;22;20022;-95
2022/01/26 18:04:41;;;;;;;98.68;35.28;;;;;;;;;;6364779;22;20023;-94
2022/01/26 18:13:18;;;;;;;100.60;37.10;;;;;;;;;;6368181;22;20027;-94
2022/01/26 18:16:05;;;;;;;101.28;39.00;;;;;;;;;;6366360;22;20176;-93
2022/01/26 18:50:42;;;;;;;118.60;38.40;;;;;;;;;;6354517;22;20011;-93
2022/01/26 18:53:11;;;;;;;106.20;37.45;;;;;;;;;;6329099;22;20103;-93
2022/01/26 18:55:41;;;;;;;107.95;37.17;;;;;;;;;;6356676;22;20608;-93
2022/01/26 18:58:12;;;;;;;118.18;39.60;;;;;;;;;;6256365;22;20077;-93
2022/01/26 19:00:43;;;;;;;124.03;38.45;;;;;;;;;;6198717;23;20029;-94
2022/01/26 19:03:12;;;;;;;104.75;37.85;;;;;;;;;;6201953;23;20052;-93
2022/01/26 19:05:42;;;;;;;100.30;36.60;;;;;;;;;;6199264;23;20077;-94
2022/01/26 19:08:10;;;;;;;107.78;38.10;;;;;;;;;;6199453;22;20032;-93
2022/01/26 19:11:03;;;;;;;103.65;35.45;;;;;;;;;;6198751;23;20069;-93
2022/01/26 19:13:53;;;;;;;106.35;36.63;;;;;;;;;;6153130;23;20009;-95
2022/01/26 19:16:47;;;;;;;115.43;37.20;;;;;;;;;;6153151;22;20061;-93
2022/01/26 19:27:13;;;;;;;101.75;35.72;;;;;;;;;;6175966;22;20041;-94
2022/01/26 19:51:37;;;;;;;107.68;36.88;;;;;;;;;;6174990;22;20021;-94
2022/01/26 19:54:06;;;;;;;99.35;34.97;;;;;;;;;;6152466;22;20300;-93
2022/01/26 19:56:33;;;;;;;101.72;35.90;;;;;;;;;;6152221;22;20024;-94
2022/01/26 19:59:02;;;;;;;104.80;36.17;;;;;;;;;;6151741;22;20014;-94
2022/01/26 20:01:30;;;;;;;93.78;32.65;;;;;;;;;;6129776;22;20013;-95
2022/01/26 20:04:00;;;;;;;94.60;35.13;;;;;;;;;;6128712;22;20189;-94
2022/01/26 20:06:33;;;;;;;100.85;36.00;;;;;;;;;;6153720;22;20043;-95
2022/01/26 20:09:15;;;;;;;101.90;33.63;;;;;;;;;;6152644;22;20052;-94
2022/01/26 20:11:59;;;;;;;100.82;33.70;;;;;;;;;;6156882;22;20026;-92
2022/01/26 20:14:36;;;;;;;90.32;32.85;;;;;;;;;;6184237;22;20017;-95
2022/01/26 20:17:08;;;;;;;89.30;32.92;;;;;;;;;;6207803;23;20047;-93
2022/01/26 20:19:38;;;;;;;92.78;34.85;;;;;;;;;;6182835;22;20048;-93
2022/01/26 20:22:10;;;;;;;84.55;33.35;;;;;;;;;;6206984;23;20088;-93
2022/01/26 20:24:36;;;;;;;83.47;32.45;;;;;;;;;;6181849;22;20028;-94
2022/01/26 20:27:07;;;;;;;86.97;31.92;;;;;;;;;;6206778;22;20013;-95
2022/01/26 20:29:46;;;;;;;83.45;32.60;;;;;;;;;;6181918;22;20024;-94
2022/01/26 20:32:15;;;;;;;80.88;31.92;;;;;;;;;;6205206;22;20028;-95
2022/01/26 20:34:43;;;;;;;94.68;35.42;;;;;;;;;;6205281;22;20029;-95
2022/01/26 20:37:10;;;;;;;84.18;33.92;;;;;;;;;;6180848;22;20401;-94
2022/01/26 20:39:37;;;;;;;92.43;33.33;;;;;;;;;;6181581;22;20017;-94
2022/01/26 20:42:06;;;;;;;89.03;35.75;;;;;;;;;;6181701;22;20028;-94
2022/01/26 20:44:37;;;;;;;83.78;33.83;;;;;;;;;;6206812;22;20075;-94
2022/01/26 23:08:04;;;;;;;79.07;35.60;;;;;;;;;;6152436;22;20061;-93
2022/01/26 23:10:32;;;;;;;76.95;36.90;;;;;;;;;;6207855;23;20024;-94
2022/01/26 23:12:59;;;;;;;77.00;35.95;;;;;;;;;;6207824;22;20021;-94
2022/01/26 23:15:33;;;;;;;80.22;36.90;;;;;;;;;;6207193;23;20039;-94
2022/01/26 23:18:00;;;;;;;86.05;36.72;;;;;;;;;;6208095;22;20010;-94
2022/01/26 23:20:49;;;;;;;78.95;36.95;;;;;;;;;;6207293;23;20035;-94
2022/01/26 23:23:17;;;;;;;79.38;36.40;;;;;;;;;;6207262;23;20027;-94
2022/01/26 23:37:05;;;;;;;80.05;34.80;;;;;;;;;;6207340;23;20017;-94
2022/01/26 23:39:32;;;;;;;;;;;;;;;;;;;;;
